Hawick, United Kingdom
Current Conditions -  °F | °C
As of 6:50 PM on Thursday 30 Oct 2014 (Local Time) from EGOM Reporting Station
Broken Clouds Broken Clouds  
Wind Chill: 13°   Ceiling: 3200
Heat Index: 13°   Visibility: 6mi
Dew Point: 12°   Wind: 8mph
Humidity: 94%   Direction: 200°SSW
Pressure: 29.91"   Gusts: NA
Location:  55.42°N, 2.79°W
Report Text: EGOM 301850Z AUTO 20007KT 9999 BKN032/// 13/12 Q1013
Loading
Personal Weather Stations






























Interactive Weather Map
Tropical Storm Tracking
New forecast layout! Learn more

10-Day Weather Forecast

Advertisements
Track Severe Weather on mobile